Time;durP1;ratioP1;P1;durP2;ratioP2;P2;SDS_P1;SDS_P2;PMS_P1;PMS_P2;Temp;Humidity;BMP_temperature;BMP_pressure;BME280_temperature;BME280_humidity;BME280_pressure;Samples;Min_cycle;Max_cycle;Signal;HPM_P1;HPM_P2
2024/03/25 00:02:00;;;;;;;4.68;0.32;;;5.70;99.90;;;;;;5062470;28;20044;-70
2024/03/25 00:04:26;;;;;;;0.98;0.73;;;5.60;99.90;;;;;;5059206;28;20060;-70
2024/03/25 00:06:52;;;;;;;4.32;0.55;;;5.60;99.90;;;;;;5065761;28;20036;-70
2024/03/25 00:09:18;;;;;;;0.75;0.10;;;5.50;99.90;;;;;;5062028;28;20036;-70
2024/03/25 00:11:44;;;;;;;0.35;0.10;;;5.40;99.90;;;;;;5066083;28;20067;-70
2024/03/25 00:14:10;;;;;;;0.47;0.10;;;5.40;99.90;;;;;;5063957;28;20336;-70
2024/03/25 00:16:36;;;;;;;1.33;0.38;;;5.30;99.90;;;;;;5081245;28;20083;-70
2024/03/25 00:19:02;;;;;;;4.03;0.52;;;5.20;99.90;;;;;;5068658;28;20041;-69
2024/03/25 00:21:28;;;;;;;1.08;0.17;;;5.20;99.90;;;;;;5071690;28;20168;-70
2024/03/25 00:23:56;;;;;;;1.60;0.38;;;5.10;99.90;;;;;;5067549;28;20036;-71
2024/03/25 00:26:23;;;;;;;6.55;0.80;;;5.00;99.90;;;;;;5068548;28;20081;-71
2024/03/25 00:28:49;;;;;;;0.43;0.32;;;5.00;99.90;;;;;;5069254;28;20356;-70
2024/03/25 00:31:15;;;;;;;1.98;0.43;;;4.90;99.90;;;;;;5073128;28;20040;-70
2024/03/25 00:33:40;;;;;;;1.27;0.20;;;4.90;99.90;;;;;;5065617;28;20036;-70
2024/03/25 00:36:07;;;;;;;7.63;0.50;;;4.80;99.90;;;;;;5060310;28;20131;-70
2024/03/25 00:38:33;;;;;;;2.90;0.60;;;4.80;99.90;;;;;;5055654;28;20480;-69
2024/03/25 00:40:58;;;;;;;1.60;0.75;;;4.90;99.90;;;;;;5084380;28;20071;-70
2024/03/25 00:43:24;;;;;;;5.75;0.43;;;4.80;99.90;;;;;;5073146;28;20046;-70
2024/03/25 00:45:50;;;;;;;1.35;0.28;;;4.80;99.90;;;;;;5068764;28;20075;-70
2024/03/25 00:48:16;;;;;;;1.73;0.30;;;4.80;99.90;;;;;;5083227;28;20039;-70
2024/03/25 00:50:41;;;;;;;3.08;0.85;;;4.80;99.90;;;;;;5069250;28;20931;-70
2024/03/25 00:53:07;;;;;;;0.98;0.57;;;4.90;99.90;;;;;;5061094;28;20365;-70
2024/03/25 00:55:35;;;;;;;1.15;0.30;;;4.90;99.90;;;;;;5062493;28;20088;-70
2024/03/25 00:58:02;;;;;;;3.17;0.40;;;4.90;99.90;;;;;;5062778;28;20408;-70
2024/03/25 01:00:28;;;;;;;1.60;0.55;;;4.90;99.90;;;;;;5064154;28;20052;-69
2024/03/25 01:02:54;;;;;;;0.43;0.30;;;5.00;99.90;;;;;;5084927;28;20578;-70
2024/03/25 01:05:19;;;;;;;3.28;0.50;;;5.00;99.90;;;;;;5067282;28;20041;-70
2024/03/25 01:07:45;;;;;;;0.00;0.00;;;5.00;99.90;;;;;;5056937;28;20036;-71
2024/03/25 01:10:10;;;;;;;3.95;0.93;;;5.10;99.90;;;;;;5064748;28;20098;-70
2024/03/25 01:12:36;;;;;;;1.38;0.30;;;5.10;99.90;;;;;;5067341;28;20122;-70
2024/03/25 01:15:03;;;;;;;0.22;0.22;;;5.10;99.90;;;;;;5069122;28;20052;-69
2024/03/25 01:17:28;;;;;;;1.13;0.30;;;5.10;99.90;;;;;;5064954;28;20254;-70
2024/03/25 01:19:54;;;;;;;1.13;0.30;;;5.10;99.90;;;;;;5067337;28;20123;-70
2024/03/25 01:22:20;;;;;;;4.70;0.63;;;5.10;99.90;;;;;;5062821;28;20036;-69
2024/03/25 01:24:45;;;;;;;1.60;0.30;;;5.10;99.90;;;;;;5068993;28;20452;-70
2024/03/25 01:27:11;;;;;;;3.92;0.55;;;5.10;99.90;;;;;;5064482;28;20568;-69
2024/03/25 01:29:37;;;;;;;0.10;0.10;;;5.20;99.90;;;;;;5066810;28;20105;-70
2024/03/25 01:32:04;;;;;;;4.43;0.75;;;5.10;99.90;;;;;;5076868;28;20063;-70
2024/03/25 01:34:30;;;;;;;1.35;0.47;;;5.20;99.90;;;;;;5066020;28;20045;-70
2024/03/25 01:36:55;;;;;;;2.20;0.80;;;5.10;99.90;;;;;;5075764;28;20054;-70
2024/03/25 01:39:21;;;;;;;4.68;0.65;;;5.10;99.90;;;;;;5064906;28;20077;-70
2024/03/25 01:41:47;;;;;;;8.10;1.08;;;5.00;99.90;;;;;;5059909;28;20028;-70
2024/03/25 01:44:12;;;;;;;0.90;0.32;;;5.00;99.90;;;;;;5066896;28;20043;-70
2024/03/25 01:46:39;;;;;;;5.47;0.30;;;4.90;99.90;;;;;;5063408;28;20036;-70
2024/03/25 01:49:05;;;;;;;3.60;0.38;;;4.90;99.90;;;;;;5062869;28;20048;-70
2024/03/25 01:51:32;;;;;;;0.47;0.10;;;4.90;99.90;;;;;;5068269;28;20040;-70
2024/03/25 01:53:59;;;;;;;4.85;0.30;;;4.90;99.90;;;;;;5066490;28;20060;-70
2024/03/25 01:56:26;;;;;;;4.30;0.70;;;4.90;99.90;;;;;;5082713;28;20048;-69
2024/03/25 01:58:52;;;;;;;3.17;0.65;;;4.90;99.90;;;;;;5064999;28;20047;-70
2024/03/25 02:01:19;;;;;;;3.78;0.75;;;4.90;99.90;;;;;;5085913;28;20400;-70
2024/03/25 02:03:45;;;;;;;3.42;0.30;;;4.90;99.90;;;;;;5067874;28;20039;-70
2024/03/25 02:06:13;;;;;;;1.02;0.05;;;5.00;99.90;;;;;;5068038;28;20083;-71
2024/03/25 02:08:41;;;;;;;2.17;0.47;;;4.90;99.90;;;;;;5064597;28;20044;-70
2024/03/25 02:11:06;;;;;;;2.90;0.40;;;4.90;99.90;;;;;;5064628;28;20044;-70
2024/03/25 02:13:32;;;;;;;0.28;0.10;;;5.00;99.90;;;;;;5061224;28;20253;-70
2024/03/25 02:15:58;;;;;;;1.02;0.38;;;4.90;99.90;;;;;;5057357;28;20530;-70
2024/03/25 02:18:24;;;;;;;1.15;0.47;;;4.90;99.90;;;;;;5062481;28;20135;-70
2024/03/25 02:20:50;;;;;;;0.08;0.05;;;4.90;99.90;;;;;;5063468;28;20516;-71
2024/03/25 02:23:16;;;;;;;1.83;0.50;;;5.00;99.90;;;;;;5065173;28;20040;-70
2024/03/25 02:25:42;;;;;;;7.05;0.45;;;4.90;99.90;;;;;;5061908;28;20036;-70
2024/03/25 02:28:09;;;;;;;0.32;0.20;;;5.00;99.90;;;;;;5057251;28;20047;-70
2024/03/25 02:30:36;;;;;;;1.60;0.28;;;5.00;99.90;;;;;;5049003;28;20484;-70
2024/03/25 02:33:02;;;;;;;4.38;1.02;;;5.00;99.90;;;;;;5061268;28;20048;-71
2024/03/25 02:35:28;;;;;;;1.55;0.50;;;4.90;99.90;;;;;;5061937;28;20395;-70
2024/03/25 02:37:54;;;;;;;2.88;0.35;;;4.90;99.90;;;;;;5068192;28;20036;-71
2024/03/25 02:40:22;;;;;;;0.10;0.00;;;4.80;99.90;;;;;;5064261;28;20039;-71
2024/03/25 02:42:48;;;;;;;0.50;0.25;;;4.70;99.90;;;;;;5064288;28;20067;-70
2024/03/25 02:45:14;;;;;;;1.95;0.10;;;4.70;99.90;;;;;;5050816;28;20032;-71
2024/03/25 02:47:39;;;;;;;0.65;0.30;;;4.70;99.90;;;;;;5068236;28;20050;-70
2024/03/25 02:50:05;;;;;;;3.80;1.13;;;4.70;99.90;;;;;;5063841;28;20076;-71
2024/03/25 02:52:31;;;;;;;7.60;0.30;;;4.70;99.90;;;;;;5065085;28;20419;-70
2024/03/25 02:54:57;;;;;;;1.45;0.15;;;4.60;99.90;;;;;;5065711;28;20080;-70
2024/03/25 02:57:23;;;;;;;1.23;0.17;;;4.70;99.90;;;;;;5063660;28;20098;-70
2024/03/25 02:59:48;;;;;;;0.13;0.13;;;4.70;99.90;;;;;;5066484;28;20075;-70
2024/03/25 03:02:14;;;;;;;2.95;0.60;;;4.70;99.90;;;;;;5064301;28;20039;-70
2024/03/25 03:04:40;;;;;;;10.23;0.85;;;4.70;99.90;;;;;;5059579;28;20121;-71
2024/03/25 03:07:05;;;;;;;3.50;0.55;;;4.70;99.90;;;;;;5063058;28;20079;-71
2024/03/25 03:09:31;;;;;;;6.03;0.90;;;4.80;99.90;;;;;;5062358;28;20143;-70
2024/03/25 03:11:57;;;;;;;1.00;0.30;;;4.80;99.90;;;;;;5068756;28;20043;-70
2024/03/25 03:14:22;;;;;;;1.17;0.47;;;4.80;99.90;;;;;;5059645;28;20043;-70
2024/03/25 03:16:49;;;;;;;3.13;0.43;;;4.80;99.90;;;;;;5056965;28;20047;-70
2024/03/25 03:19:15;;;;;;;0.73;0.05;;;4.80;99.90;;;;;;5055574;28;20036;-70
2024/03/25 03:21:40;;;;;;;0.32;0.10;;;4.70;99.90;;;;;;5060596;28;20164;-70
2024/03/25 03:24:06;;;;;;;0.50;0.20;;;4.70;99.90;;;;;;5065293;28;20503;-71
2024/03/25 03:26:32;;;;;;;0.10;0.03;;;4.70;99.90;;;;;;5050543;28;20055;-70
2024/03/25 03:28:58;;;;;;;0.45;0.20;;;4.70;99.90;;;;;;5060959;28;20502;-70
2024/03/25 03:31:24;;;;;;;3.92;0.40;;;4.70;99.90;;;;;;5069113;28;20385;-70
2024/03/25 03:33:50;;;;;;;3.90;0.77;;;4.60;99.90;;;;;;5067773;28;20036;-71
2024/03/25 03:36:17;;;;;;;0.10;0.08;;;4.60;99.90;;;;;;5067430;28;20142;-70
2024/03/25 03:38:43;;;;;;;2.20;0.20;;;4.60;99.90;;;;;;5068276;28;20050;-71
2024/03/25 03:41:09;;;;;;;7.18;0.93;;;4.60;99.90;;;;;;5064591;28;20040;-70
2024/03/25 03:43:35;;;;;;;4.00;0.17;;;4.60;99.90;;;;;;5068040;28;20043;-70
2024/03/25 03:46:01;;;;;;;5.55;0.40;;;4.70;99.90;;;;;;5082140;28;20041;-70
2024/03/25 03:48:27;;;;;;;4.05;0.75;;;4.60;99.90;;;;;;5065938;28;20070;-70
2024/03/25 03:50:53;;;;;;;5.43;0.70;;;4.70;99.90;;;;;;5043619;28;20067;-70
2024/03/25 03:53:19;;;;;;;0.32;0.13;;;4.70;99.90;;;;;;5060492;28;20433;-71
2024/03/25 03:55:58;;;;;;;1.98;0.50;;;4.70;99.90;;;;;;5058378;28;20139;-70
2024/03/25 03:58:24;;;;;;;3.15;0.13;;;4.70;99.90;;;;;;5062815;28;20123;-70
2024/03/25 04:00:51;;;;;;;2.40;0.52;;;4.90;99.90;;;;;;5056511;28;20041;-70
2024/03/25 04:03:17;;;;;;;2.28;0.35;;;4.80;99.90;;;;;;5069643;28;20040;-70
2024/03/25 04:05:43;;;;;;;3.22;0.35;;;4.80;99.90;;;;;;5060072;28;20112;-70
2024/03/25 04:08:09;;;;;;;1.27;0.20;;;4.80;99.90;;;;;;5070666;28;20496;-70
2024/03/25 04:10:36;;;;;;;4.22;0.20;;;4.80;99.90;;;;;;5057458;28;20048;-71
2024/03/25 04:13:02;;;;;;;3.78;0.65;;;4.80;99.90;;;;;;5058462;28;20075;-70
2024/03/25 04:15:27;;;;;;;5.32;0.60;;;4.80;99.90;;;;;;5066342;28;20706;-70
2024/03/25 04:17:53;;;;;;;2.72;0.22;;;4.80;99.90;;;;;;5047286;28;20119;-70
2024/03/25 04:20:19;;;;;;;4.18;0.50;;;4.80;99.90;;;;;;5083779;28;20082;-70
2024/03/25 04:22:46;;;;;;;6.07;0.22;;;4.70;99.90;;;;;;5064597;28;20043;-71
2024/03/25 04:25:14;;;;;;;0.00;0.00;;;4.80;99.90;;;;;;5063838;28;20047;-71
2024/03/25 04:27:43;;;;;;;3.38;0.55;;;4.70;99.90;;;;;;5063120;28;20486;-71
2024/03/25 04:30:11;;;;;;;0.32;0.13;;;4.70;99.90;;;;;;5065720;28;20040;-71
2024/03/25 04:32:37;;;;;;;2.63;0.52;;;4.60;99.90;;;;;;5063213;28;20089;-71
2024/03/25 04:35:03;;;;;;;0.10;0.10;;;4.60;99.90;;;;;;5066140;28;20055;-71
2024/03/25 04:37:30;;;;;;;0.22;0.22;;;4.60;99.90;;;;;;5064912;28;20063;-70
2024/03/25 04:39:56;;;;;;;10.18;0.68;;;4.60;99.90;;;;;;5086831;28;20433;-71
2024/03/25 04:42:23;;;;;;;2.42;0.30;;;4.50;99.90;;;;;;5060176;28;20476;-71
2024/03/25 04:44:49;;;;;;;7.63;0.45;;;4.50;99.90;;;;;;5063286;28;20098;-71
2024/03/25 04:47:15;;;;;;;0.93;0.32;;;4.40;99.90;;;;;;5064242;28;20504;-71
2024/03/25 04:49:41;;;;;;;2.38;0.65;;;4.30;99.90;;;;;;5059597;28;20416;-71
2024/03/25 04:52:07;;;;;;;3.58;1.08;;;4.30;99.90;;;;;;5057464;28;20036;-71
2024/03/25 04:54:32;;;;;;;0.88;0.38;;;4.20;99.90;;;;;;5064121;28;20059;-71
2024/03/25 04:56:58;;;;;;;1.85;0.57;;;4.20;99.90;;;;;;5049540;28;20051;-71
2024/03/25 04:59:24;;;;;;;0.20;0.10;;;4.10;99.90;;;;;;5080475;28;20040;-71
2024/03/25 05:01:50;;;;;;;7.20;0.68;;;4.10;99.90;;;;;;5077136;28;20553;-71
2024/03/25 05:04:15;;;;;;;0.90;0.35;;;4.10;99.90;;;;;;5070468;28;20093;-71
2024/03/25 05:06:41;;;;;;;1.35;0.47;;;4.10;99.90;;;;;;5062873;28;20032;-71
2024/03/25 05:09:07;;;;;;;2.05;0.10;;;4.00;99.90;;;;;;5080463;28;20197;-71
2024/03/25 05:11:33;;;;;;;2.95;0.88;;;3.90;99.90;;;;;;5071897;28;20191;-71
2024/03/25 05:13:59;;;;;;;1.20;0.13;;;3.90;99.90;;;;;;5057555;28;20134;-72
2024/03/25 05:16:25;;;;;;;0.65;0.20;;;3.90;99.90;;;;;;5069494;28;20040;-71
2024/03/25 05:18:50;;;;;;;2.08;0.88;;;3.80;99.90;;;;;;5065907;28;20028;-71
2024/03/25 05:21:16;;;;;;;1.55;0.43;;;3.80;99.90;;;;;;5067125;28;20098;-71
2024/03/25 05:23:42;;;;;;;4.18;0.95;;;3.70;99.90;;;;;;5064899;28;20033;-71
2024/03/25 05:26:08;;;;;;;4.38;0.55;;;3.70;99.90;;;;;;5066427;28;20545;-71
2024/03/25 05:28:33;;;;;;;0.82;0.43;;;3.70;99.90;;;;;;5073463;28;20392;-71
2024/03/25 05:31:07;;;;;;;1.35;0.30;;;3.70;99.90;;;;;;5065503;28;20040;-71
2024/03/25 05:33:33;;;;;;;0.45;0.20;;;3.70;99.90;;;;;;5064903;28;20668;-71
2024/03/25 05:36:00;;;;;;;0.22;0.17;;;3.60;99.90;;;;;;5071608;28;20045;-71
2024/03/25 05:38:26;;;;;;;4.43;1.05;;;3.60;99.90;;;;;;5069707;28;20043;-71
2024/03/25 05:40:52;;;;;;;5.40;0.93;;;3.60;99.90;;;;;;5061468;28;20040;-71
2024/03/25 05:43:18;;;;;;;0.40;0.20;;;3.50;99.90;;;;;;5063851;28;21172;-71
2024/03/25 05:45:51;;;;;;;4.38;1.08;;;3.50;99.90;;;;;;5059347;28;20092;-70
2024/03/25 05:48:17;;;;;;;0.80;0.43;;;3.50;99.90;;;;;;5084594;28;20134;-71
2024/03/25 05:50:42;;;;;;;4.78;0.45;;;3.40;99.90;;;;;;5062486;28;20122;-70
2024/03/25 05:53:08;;;;;;;0.70;0.13;;;3.40;99.90;;;;;;5067875;28;20041;-71
2024/03/25 05:55:34;;;;;;;2.08;0.45;;;3.40;99.90;;;;;;5058146;28;20134;-70
2024/03/25 05:58:00;;;;;;;1.02;0.60;;;3.40;99.90;;;;;;5071505;28;20115;-70
2024/03/25 06:00:26;;;;;;;2.95;0.75;;;3.40;99.90;;;;;;5067071;28;20503;-71
2024/03/25 06:02:53;;;;;;;2.25;0.35;;;3.40;99.90;;;;;;5069441;28;20036;-70
2024/03/25 06:05:19;;;;;;;1.55;0.30;;;3.30;99.90;;;;;;5085158;28;20043;-70
2024/03/25 06:07:45;;;;;;;0.45;0.38;;;3.30;99.90;;;;;;5066592;28;20103;-71
2024/03/25 06:10:11;;;;;;;0.28;0.25;;;3.30;99.90;;;;;;5064887;28;20040;-71
2024/03/25 06:12:37;;;;;;;0.30;0.20;;;3.30;99.90;;;;;;5062234;28;20067;-71
2024/03/25 06:15:03;;;;;;;0.65;0.25;;;3.30;99.90;;;;;;5067493;28;20569;-69
2024/03/25 06:17:29;;;;;;;1.85;0.40;;;3.30;99.90;;;;;;5060950;28;20354;-69
2024/03/25 06:19:54;;;;;;;6.93;0.70;;;3.30;99.90;;;;;;5065918;28;20051;-70
2024/03/25 06:22:20;;;;;;;0.10;0.10;;;3.30;99.90;;;;;;5070848;28;20043;-70
2024/03/25 06:24:46;;;;;;;0.32;0.32;;;3.30;99.90;;;;;;5062635;28;20039;-70
2024/03/25 06:27:12;;;;;;;9.50;0.98;;;3.40;99.90;;;;;;5071322;28;20048;-70
2024/03/25 06:29:37;;;;;;;0.35;0.20;;;3.50;99.90;;;;;;5063896;28;20090;-70
2024/03/25 06:34:47;;;;;;;1.08;0.28;;;3.70;99.90;;;;;;5071212;28;20513;-70
2024/03/25 06:37:13;;;;;;;2.58;0.28;;;3.80;99.90;;;;;;5059319;28;20041;-70
2024/03/25 06:39:38;;;;;;;5.13;0.82;;;3.90;99.90;;;;;;5064635;28;20043;-70
2024/03/25 06:42:04;;;;;;;1.85;0.40;;;4.00;99.90;;;;;;5063221;28;20045;-70
2024/03/25 06:44:31;;;;;;;0.00;0.00;;;4.20;99.90;;;;;;5081640;28;20040;-70
2024/03/25 06:46:56;;;;;;;2.08;0.40;;;4.40;99.90;;;;;;5087607;28;20383;-70
2024/03/25 06:49:22;;;;;;;3.92;0.68;;;4.50;99.90;;;;;;5064658;28;20122;-70
2024/03/25 06:51:48;;;;;;;2.88;0.60;;;4.60;99.90;;;;;;5064389;28;21756;-70
2024/03/25 06:54:13;;;;;;;0.43;0.43;;;4.70;99.90;;;;;;5065670;28;20079;-69
2024/03/25 06:56:40;;;;;;;4.35;0.30;;;4.90;99.90;;;;;;5078996;28;20056;-68
2024/03/25 06:59:06;;;;;;;3.90;0.50;;;5.10;99.90;;;;;;5063983;28;20337;-70
2024/03/25 07:01:32;;;;;;;3.80;0.75;;;5.20;99.90;;;;;;5062455;28;20074;-70
2024/03/25 07:03:57;;;;;;;2.33;0.32;;;5.40;99.90;;;;;;5066435;28;20071;-71
2024/03/25 07:06:26;;;;;;;3.42;0.65;;;5.50;99.90;;;;;;5052191;28;20131;-71
2024/03/25 07:08:52;;;;;;;0.05;0.05;;;5.70;99.90;;;;;;5064345;28;20602;-70
2024/03/25 07:11:17;;;;;;;0.20;0.20;;;5.80;99.90;;;;;;5061208;28;20427;-71
2024/03/25 07:13:47;;;;;;;0.65;0.20;;;6.00;99.90;;;;;;5060162;28;20036;-70
2024/03/25 07:16:12;;;;;;;3.20;0.40;;;6.10;99.90;;;;;;5065637;28;20056;-70
2024/03/25 07:18:38;;;;;;;0.32;0.10;;;6.30;99.90;;;;;;5069348;28;20349;-70
2024/03/25 07:21:04;;;;;;;0.17;0.15;;;6.40;99.90;;;;;;5068076;28;20059;-70
2024/03/25 07:23:29;;;;;;;0.03;0.03;;;6.50;99.90;;;;;;5063410;28;20397;-68
2024/03/25 07:25:55;;;;;;;0.05;0.00;;;6.60;99.90;;;;;;5062837;28;20032;-68
2024/03/25 07:28:21;;;;;;;0.70;0.17;;;6.80;99.90;;;;;;5051182;28;20098;-68
2024/03/25 07:30:49;;;;;;;0.95;0.20;;;7.00;99.90;;;;;;5060917;28;20040;-68
2024/03/25 07:33:15;;;;;;;0.47;0.20;;;7.10;99.90;;;;;;5062790;28;20036;-68
2024/03/25 07:35:41;;;;;;;2.88;0.40;;;7.30;99.90;;;;;;5064082;28;20042;-69
2024/03/25 07:38:07;;;;;;;2.17;0.10;;;7.30;99.90;;;;;;5061752;28;20510;-69
2024/03/25 07:40:33;;;;;;;1.30;0.40;;;7.50;99.90;;;;;;5084029;28;20036;-68
2024/03/25 07:42:58;;;;;;;1.08;0.25;;;7.60;99.90;;;;;;5068833;28;20129;-69
2024/03/25 07:45:24;;;;;;;1.85;0.25;;;7.80;99.90;;;;;;5064332;28;20040;-69
2024/03/25 07:47:50;;;;;;;0.15;0.13;;;7.90;99.90;;;;;;5048955;28;20036;-69
2024/03/25 07:50:16;;;;;;;0.35;0.00;;;8.10;99.90;;;;;;5063555;28;20038;-69
2024/03/25 07:52:42;;;;;;;0.32;0.15;;;8.40;99.90;;;;;;5052708;28;20093;-69
2024/03/25 07:55:08;;;;;;;1.65;0.40;;;8.80;99.90;;;;;;5061189;28;20098;-69
2024/03/25 07:57:34;;;;;;;2.63;0.10;;;9.10;99.90;;;;;;5065059;28;20405;-69
2024/03/25 08:00:00;;;;;;;3.92;0.20;;;9.70;99.90;;;;;;5064395;28;20098;-69
2024/03/25 08:02:26;;;;;;;5.25;0.60;;;10.20;99.90;;;;;;5062967;28;20777;-69
2024/03/25 08:04:51;;;;;;;0.98;0.45;;;10.80;99.90;;;;;;5063727;28;20463;-69
2024/03/25 08:07:17;;;;;;;2.47;0.10;;;11.30;99.90;;;;;;5062180;28;20040;-70
2024/03/25 08:09:43;;;;;;;3.50;0.38;;;11.60;99.90;;;;;;5058762;28;20040;-69
2024/03/25 08:12:08;;;;;;;2.45;0.20;;;11.90;99.90;;;;;;5059087;28;20064;-70
2024/03/25 08:14:34;;;;;;;1.77;0.10;;;12.00;99.90;;;;;;5056920;28;20044;-69
2024/03/25 08:17:00;;;;;;;0.22;0.08;;;11.90;99.90;;;;;;5061779;28;20044;-70
2024/03/25 08:19:25;;;;;;;2.70;0.20;;;11.70;99.90;;;;;;5061217;28;20036;-70
2024/03/25 08:21:51;;;;;;;2.40;0.10;;;11.60;99.90;;;;;;5081599;28;20504;-70
2024/03/25 08:24:17;;;;;;;1.77;0.20;;;11.70;99.90;;;;;;5047969;28;20029;-70
2024/03/25 08:26:42;;;;;;;2.45;0.45;;;11.30;99.90;;;;;;5057677;28;20046;-70
2024/03/25 08:29:08;;;;;;;6.60;0.45;;;11.10;99.90;;;;;;5062853;28;20393;-70
2024/03/25 08:31:34;;;;;;;0.32;0.00;;;11.80;99.90;;;;;;5061001;28;20044;-70
2024/03/25 08:33:59;;;;;;;0.20;0.10;;;12.20;99.90;;;;;;5059825;28;20048;-70
2024/03/25 08:36:25;;;;;;;0.45;0.00;;;12.40;99.90;;;;;;5060865;28;20468;-70
2024/03/25 08:38:51;;;;;;;8.35;0.30;;;12.40;99.90;;;;;;5064941;28;20028;-70
2024/03/25 08:41:16;;;;;;;0.77;0.17;;;12.00;99.90;;;;;;5064821;28;20040;-71
2024/03/25 08:43:42;;;;;;;5.63;0.50;;;11.50;99.90;;;;;;5066513;28;20058;-70
2024/03/25 08:46:08;;;;;;;3.22;0.40;;;11.30;99.90;;;;;;5071227;28;20511;-71
2024/03/25 08:48:33;;;;;;;2.88;0.55;;;12.00;99.90;;;;;;5058429;28;20072;-71
2024/03/25 08:50:59;;;;;;;6.75;0.30;;;13.10;99.90;;;;;;5058579;28;20039;-71
2024/03/25 08:53:25;;;;;;;0.00;0.00;;;14.20;99.90;;;;;;5072818;28;20078;-71
2024/03/25 08:55:50;;;;;;;1.58;0.47;;;15.00;99.90;;;;;;5059467;28;20504;-71
2024/03/25 08:58:16;;;;;;;1.90;0.10;;;15.20;99.90;;;;;;5065484;28;20143;-70
2024/03/25 09:00:43;;;;;;;0.70;0.20;;;14.70;99.90;;;;;;5061340;28;20036;-70
2024/03/25 09:03:10;;;;;;;0.88;0.13;;;14.30;99.90;;;;;;5077752;28;20041;-71
2024/03/25 09:05:38;;;;;;;3.10;0.20;;;14.60;99.90;;;;;;5059262;28;20101;-70
2024/03/25 09:08:11;;;;;;;2.10;0.38;;;15.20;99.90;;;;;;5060324;28;20044;-71
2024/03/25 09:13:21;;;;;;;2.40;0.43;;;16.10;99.90;;;;;;5062189;28;20116;-70
2024/03/25 09:15:46;;;;;;;0.90;0.17;;;15.10;99.90;;;;;;5065157;28;20549;-71
2024/03/25 09:18:12;;;;;;;1.52;0.30;;;14.20;99.90;;;;;;5065802;28;20035;-71
2024/03/25 09:20:38;;;;;;;1.77;0.30;;;13.50;99.90;;;;;;5067158;28;20526;-71
2024/03/25 09:23:04;;;;;;;3.72;0.45;;;12.90;99.90;;;;;;5062212;28;20119;-71
2024/03/25 09:25:29;;;;;;;4.28;0.20;;;12.50;99.90;;;;;;5068993;28;20059;-72
2024/03/25 09:27:55;;;;;;;1.05;0.20;;;12.20;99.90;;;;;;5063875;28;20461;-71
2024/03/25 09:30:20;;;;;;;1.85;0.15;;;11.80;99.90;;;;;;5066134;28;20127;-71
2024/03/25 09:32:46;;;;;;;0.50;0.13;;;11.30;99.90;;;;;;5066100;28;20051;-71
2024/03/25 09:35:12;;;;;;;0.00;0.00;;;11.00;99.90;;;;;;5068659;28;20047;-71
2024/03/25 09:37:38;;;;;;;1.27;0.30;;;10.70;99.90;;;;;;5065416;28;20411;-71
2024/03/25 09:40:05;;;;;;;3.53;0.43;;;10.40;99.90;;;;;;5066075;28;20040;-71
2024/03/25 09:42:41;;;;;;;1.00;0.22;;;10.40;99.90;;;;;;5064149;28;20044;-72
2024/03/25 09:45:09;;;;;;;0.45;0.05;;;11.50;99.90;;;;;;5065699;28;20036;-72
2024/03/25 09:47:35;;;;;;;1.95;0.17;;;12.70;99.90;;;;;;5056505;28;20045;-71
2024/03/25 09:50:04;;;;;;;2.88;0.28;;;12.80;99.90;;;;;;5063617;28;20109;-71
2024/03/25 09:52:30;;;;;;;1.08;0.15;;;12.50;99.90;;;;;;5059304;28;20100;-71
2024/03/25 09:54:56;;;;;;;7.03;0.45;;;12.10;99.90;;;;;;5066862;28;20045;-71
2024/03/25 09:57:22;;;;;;;1.58;0.22;;;11.70;99.90;;;;;;5061587;28;20460;-72
2024/03/25 09:59:48;;;;;;;0.10;0.00;;;11.70;99.90;;;;;;5061884;28;20349;-71
2024/03/25 10:02:16;;;;;;;1.88;0.30;;;12.10;99.90;;;;;;5060843;28;20037;-71
2024/03/25 10:04:47;;;;;;;0.52;0.20;;;12.60;99.90;;;;;;5069001;28;20043;-72
2024/03/25 10:07:22;;;;;;;1.55;0.13;;;13.50;99.90;;;;;;5063384;28;20496;-72
2024/03/25 10:09:49;;;;;;;2.35;0.30;;;14.40;99.90;;;;;;5053676;28;20041;-71
2024/03/25 10:12:15;;;;;;;0.73;0.20;;;14.50;99.90;;;;;;5061121;28;20079;-72
2024/03/25 10:14:40;;;;;;;1.60;0.15;;;13.80;99.90;;;;;;5065368;28;20040;-71
2024/03/25 10:17:06;;;;;;;2.58;0.47;;;13.00;99.90;;;;;;5061318;28;20566;-70
2024/03/25 10:19:34;;;;;;;0.90;0.10;;;12.40;99.90;;;;;;5066614;28;20048;-71
2024/03/25 10:22:07;;;;;;;1.48;0.10;;;11.60;99.90;;;;;;5070920;28;20036;-70
2024/03/25 10:24:51;;;;;;;0.87;0.10;;;11.00;99.90;;;;;;5065810;28;20113;-70
2024/03/25 10:27:20;;;;;;;5.83;0.40;;;10.50;99.90;;;;;;5062736;28;20372;-71
2024/03/25 10:29:55;;;;;;;2.67;0.10;;;10.10;99.90;;;;;;5065284;28;20130;-70
2024/03/25 10:32:24;;;;;;;2.22;0.17;;;10.00;99.90;;;;;;5062545;28;20044;-71
2024/03/25 10:34:50;;;;;;;0.10;0.10;;;10.30;99.90;;;;;;5060159;28;20048;-71
2024/03/25 10:37:17;;;;;;;1.15;0.32;;;10.60;99.90;;;;;;5059131;28;20049;-72
2024/03/25 10:39:58;;;;;;;1.52;0.20;;;11.30;99.90;;;;;;5060616;28;20040;-71
2024/03/25 10:42:24;;;;;;;5.57;0.35;;;12.10;99.90;;;;;;5057880;28;20043;-72
2024/03/25 10:44:52;;;;;;;5.63;0.28;;;12.30;99.90;;;;;;5058121;28;20033;-71
2024/03/25 10:47:25;;;;;;;2.05;0.13;;;12.70;99.90;;;;;;5057661;28;20452;-72
2024/03/25 10:49:56;;;;;;;0.47;0.10;;;13.20;99.90;;;;;;5059251;28;20123;-72
2024/03/25 10:52:23;;;;;;;1.08;0.40;;;13.80;99.90;;;;;;5061202;28;20127;-72
2024/03/25 10:54:50;;;;;;;5.00;0.35;;;14.20;99.90;;;;;;5081216;28;20147;-72
2024/03/25 10:57:16;;;;;;;1.98;0.17;;;14.60;99.90;;;;;;5067563;28;20048;-72
2024/03/25 10:59:45;;;;;;;2.15;0.17;;;14.60;99.90;;;;;;5046651;28;20094;-72
2024/03/25 11:02:11;;;;;;;0.95;0.20;;;14.30;99.90;;;;;;5067176;28;20084;-72
2024/03/25 11:04:37;;;;;;;0.28;0.00;;;14.20;99.90;;;;;;5063421;28;20070;-72
2024/03/25 11:07:13;;;;;;;0.45;0.10;;;14.60;99.90;;;;;;5066871;28;20058;-72
2024/03/25 11:09:40;;;;;;;8.63;0.40;;;15.00;99.90;;;;;;5060011;28;20066;-73
2024/03/25 11:12:07;;;;;;;1.00;0.00;;;15.30;99.90;;;;;;5066651;28;20050;-72
2024/03/25 11:14:34;;;;;;;3.40;0.38;;;15.70;99.90;;;;;;5052024;28;20055;-72
2024/03/25 11:17:00;;;;;;;1.38;0.43;;;16.00;99.90;;;;;;5063901;28;20044;-73
2024/03/25 11:19:27;;;;;;;0.60;0.10;;;16.20;99.90;;;;;;5067498;28;20097;-73
2024/03/25 11:21:53;;;;;;;0.38;0.10;;;16.40;99.90;;;;;;5066547;28;20120;-70
2024/03/25 11:24:28;;;;;;;1.80;0.20;;;16.50;99.90;;;;;;5062053;28;20036;-72
2024/03/25 11:26:55;;;;;;;0.90;0.10;;;16.20;99.90;;;;;;5066401;28;20036;-72
2024/03/25 11:29:21;;;;;;;0.20;0.10;;;15.90;99.90;;;;;;5058343;28;20036;-71
2024/03/25 11:31:49;;;;;;;1.50;0.30;;;15.70;99.90;;;;;;5063992;28;20365;-72
2024/03/25 11:34:15;;;;;;;0.60;0.00;;;15.60;99.90;;;;;;5060619;28;20184;-72
2024/03/25 11:36:41;;;;;;;1.80;0.75;;;15.50;99.90;;;;;;5058493;28;20059;-71
2024/03/25 11:39:09;;;;;;;1.80;0.20;;;15.30;99.90;;;;;;5056379;28;20036;-72
2024/03/25 11:41:42;;;;;;;2.58;0.30;;;15.20;99.90;;;;;;5069026;28;20048;-71
2024/03/25 11:44:09;;;;;;;0.85;0.10;;;15.40;99.90;;;;;;5059022;28;20090;-72
2024/03/25 11:46:39;;;;;;;0.17;0.00;;;15.40;99.90;;;;;;5063441;28;20117;-72
2024/03/25 11:49:12;;;;;;;6.72;0.30;;;15.40;99.90;;;;;;5077442;28;20079;-72
2024/03/25 11:51:41;;;;;;;0.43;0.00;;;15.30;99.90;;;;;;5061787;28;20086;-72
2024/03/25 11:54:10;;;;;;;2.95;0.15;;;14.90;99.90;;;;;;5049406;28;20048;-72
2024/03/25 11:56:37;;;;;;;0.65;0.10;;;14.60;99.90;;;;;;5062502;28;20060;-72
2024/03/25 11:59:03;;;;;;;3.83;0.32;;;14.40;99.90;;;;;;5057089;28;20044;-71
2024/03/25 12:01:30;;;;;;;3.20;0.20;;;14.00;99.90;;;;;;5063658;28;20126;-71
2024/03/25 12:03:56;;;;;;;0.75;0.38;;;13.70;99.90;;;;;;5068602;28;20623;-72
2024/03/25 12:06:22;;;;;;;4.00;0.38;;;13.60;99.90;;;;;;5060048;28;20036;-71
2024/03/25 12:11:39;;;;;;;3.95;0.40;;;13.40;99.90;;;;;;5039824;28;20166;-71
2024/03/25 12:14:05;;;;;;;0.65;0.15;;;13.10;99.90;;;;;;5067441;28;20136;-71
2024/03/25 12:16:31;;;;;;;3.78;0.30;;;12.90;99.90;;;;;;5063071;28;20044;-72
2024/03/25 12:18:58;;;;;;;2.28;0.35;;;13.40;99.90;;;;;;5089794;28;20051;-72
2024/03/25 12:21:24;;;;;;;0.75;0.10;;;14.10;99.90;;;;;;5070915;28;20483;-72
2024/03/25 12:23:50;;;;;;;1.98;0.20;;;14.50;99.90;;;;;;5065527;28;20637;-71
2024/03/25 12:26:15;;;;;;;0.15;0.03;;;14.70;99.90;;;;;;5076890;28;20037;-72
2024/03/25 12:28:41;;;;;;;1.75;0.32;;;15.10;99.90;;;;;;5069594;28;20058;-71
2024/03/25 12:31:14;;;;;;;1.95;0.20;;;15.60;99.90;;;;;;5065313;28;20116;-73
2024/03/25 12:33:44;;;;;;;2.95;0.20;;;16.20;99.90;;;;;;5070783;28;20044;-72
2024/03/25 12:36:12;;;;;;;5.38;0.30;;;16.30;99.90;;;;;;5055826;28;20047;-72
2024/03/25 12:38:37;;;;;;;1.50;0.30;;;16.20;99.90;;;;;;5087657;28;20119;-72
2024/03/25 12:41:08;;;;;;;1.23;0.30;;;15.70;99.90;;;;;;5054732;28;20131;-72
2024/03/25 12:43:35;;;;;;;1.45;0.30;;;15.00;99.90;;;;;;5064230;28;20043;-72
2024/03/25 12:46:03;;;;;;;3.13;0.38;;;14.50;99.90;;;;;;5071349;28;20123;-72
2024/03/25 12:48:29;;;;;;;3.10;0.30;;;14.10;99.90;;;;;;5072116;28;20036;-73
2024/03/25 12:50:55;;;;;;;3.05;0.13;;;13.70;99.90;;;;;;5088795;28;20123;-72
2024/03/25 12:53:21;;;;;;;2.63;0.20;;;13.30;99.90;;;;;;5078574;28;20455;-72
2024/03/25 12:55:47;;;;;;;0.30;0.13;;;12.90;99.90;;;;;;5068771;28;20097;-72
2024/03/25 12:58:13;;;;;;;1.83;0.30;;;12.70;99.90;;;;;;5064963;28;20080;-72